sensor_id;sensor_type;location;lat;lon;timestamp;P1;durP1;ratioP1;P2;durP2;ratioP2
20653;SDS011;21083;50.898;4.902;2022-07-24T00:01:55;17.38;;;8.68;;
20653;SDS011;21083;50.898;4.902;2022-07-24T00:04:22;15.82;;;8.90;;
20653;SDS011;21083;50.898;4.902;2022-07-24T00:06:49;17.88;;;10.07;;
20653;SDS011;21083;50.898;4.902;2022-07-24T00:09:16;17.35;;;9.40;;
20653;SDS011;21083;50.898;4.902;2022-07-24T00:11:43;15.48;;;9.77;;
20653;SDS011;21083;50.898;4.902;2022-07-24T00:14:10;18.35;;;12.38;;
20653;SDS011;21083;50.898;4.902;2022-07-24T00:16:38;18.80;;;12.93;;
20653;SDS011;21083;50.898;4.902;2022-07-24T00:19:05;22.48;;;13.60;;
20653;SDS011;21083;50.898;4.902;2022-07-24T00:21:32;23.30;;;13.32;;
20653;SDS011;21083;50.898;4.902;2022-07-24T00:23:59;26.40;;;14.82;;
20653;SDS011;21083;50.898;4.902;2022-07-24T00:26:27;24.23;;;13.88;;
20653;SDS011;21083;50.898;4.902;2022-07-24T00:28:54;21.08;;;11.35;;
20653;SDS011;21083;50.898;4.902;2022-07-24T00:31:20;22.02;;;11.98;;
20653;SDS011;21083;50.898;4.902;2022-07-24T00:33:49;22.58;;;12.57;;
20653;SDS011;21083;50.898;4.902;2022-07-24T00:36:16;22.98;;;14.02;;
20653;SDS011;21083;50.898;4.902;2022-07-24T00:38:43;27.58;;;15.50;;
20653;SDS011;21083;50.898;4.902;2022-07-24T00:41:10;24.17;;;17.05;;
20653;SDS011;21083;50.898;4.902;2022-07-24T00:46:25;28.90;;;18.40;;
20653;SDS011;21083;50.898;4.902;2022-07-24T00:48:53;30.02;;;19.35;;
20653;SDS011;21083;50.898;4.902;2022-07-24T00:51:20;32.22;;;20.13;;
20653;SDS011;21083;50.898;4.902;2022-07-24T00:53:47;38.38;;;22.02;;
20653;SDS011;21083;50.898;4.902;2022-07-24T00:56:15;36.67;;;24.92;;
20653;SDS011;21083;50.898;4.902;2022-07-24T00:58:41;40.38;;;25.33;;
20653;SDS011;21083;50.898;4.902;2022-07-24T01:01:08;41.90;;;25.50;;
20653;SDS011;21083;50.898;4.902;2022-07-24T01:03:35;37.67;;;26.65;;
20653;SDS011;21083;50.898;4.902;2022-07-24T01:06:04;39.33;;;26.92;;
20653;SDS011;21083;50.898;4.902;2022-07-24T01:08:32;47.30;;;28.27;;
20653;SDS011;21083;50.898;4.902;2022-07-24T01:10:59;41.53;;;29.42;;
20653;SDS011;21083;50.898;4.902;2022-07-24T01:13:26;47.35;;;29.75;;
20653;SDS011;21083;50.898;4.902;2022-07-24T01:15:55;46.50;;;29.92;;
20653;SDS011;21083;50.898;4.902;2022-07-24T01:18:22;44.25;;;29.70;;
20653;SDS011;21083;50.898;4.902;2022-07-24T01:20:50;47.97;;;29.80;;
20653;SDS011;21083;50.898;4.902;2022-07-24T01:23:18;46.97;;;30.20;;
20653;SDS011;21083;50.898;4.902;2022-07-24T01:25:45;48.70;;;31.02;;
20653;SDS011;21083;50.898;4.902;2022-07-24T01:28:12;44.63;;;29.55;;
20653;SDS011;21083;50.898;4.902;2022-07-24T01:30:39;49.28;;;31.25;;
20653;SDS011;21083;50.898;4.902;2022-07-24T01:33:06;55.35;;;30.27;;
20653;SDS011;21083;50.898;4.902;2022-07-24T01:35:33;51.25;;;32.92;;
20653;SDS011;21083;50.898;4.902;2022-07-24T01:38:02;53.28;;;33.38;;
20653;SDS011;21083;50.898;4.902;2022-07-24T01:40:29;51.03;;;33.20;;
20653;SDS011;21083;50.898;4.902;2022-07-24T01:42:56;52.50;;;33.58;;
20653;SDS011;21083;50.898;4.902;2022-07-24T01:45:23;58.47;;;34.25;;
20653;SDS011;21083;50.898;4.902;2022-07-24T01:47:51;54.05;;;33.90;;
20653;SDS011;21083;50.898;4.902;2022-07-24T01:50:18;53.70;;;33.88;;
20653;SDS011;21083;50.898;4.902;2022-07-24T01:52:45;58.22;;;34.83;;
20653;SDS011;21083;50.898;4.902;2022-07-24T01:55:13;56.20;;;32.90;;
20653;SDS011;21083;50.898;4.902;2022-07-24T01:57:40;54.47;;;34.42;;
20653;SDS011;21083;50.898;4.902;2022-07-24T02:00:07;45.35;;;30.15;;
20653;SDS011;21083;50.898;4.902;2022-07-24T02:02:37;47.55;;;32.15;;
20653;SDS011;21083;50.898;4.902;2022-07-24T02:05:04;44.97;;;28.65;;
20653;SDS011;21083;50.898;4.902;2022-07-24T02:07:31;44.90;;;29.35;;
20653;SDS011;21083;50.898;4.902;2022-07-24T02:09:58;46.70;;;29.48;;
20653;SDS011;21083;50.898;4.902;2022-07-24T02:12:27;43.50;;;29.02;;
20653;SDS011;21083;50.898;4.902;2022-07-24T02:14:54;46.08;;;29.35;;
20653;SDS011;21083;50.898;4.902;2022-07-24T02:17:21;47.38;;;30.35;;
20653;SDS011;21083;50.898;4.902;2022-07-24T02:19:47;46.95;;;30.40;;
20653;SDS011;21083;50.898;4.902;2022-07-24T02:22:14;44.67;;;29.27;;
20653;SDS011;21083;50.898;4.902;2022-07-24T02:24:41;46.47;;;29.35;;
20653;SDS011;21083;50.898;4.902;2022-07-24T02:27:08;43.10;;;28.20;;
20653;SDS011;21083;50.898;4.902;2022-07-24T02:29:36;44.17;;;27.30;;
20653;SDS011;21083;50.898;4.902;2022-07-24T02:32:05;45.60;;;29.17;;
20653;SDS011;21083;50.898;4.902;2022-07-24T02:34:32;43.58;;;28.10;;
20653;SDS011;21083;50.898;4.902;2022-07-24T02:36:59;48.15;;;29.85;;
20653;SDS011;21083;50.898;4.902;2022-07-24T02:39:26;46.15;;;29.52;;
20653;SDS011;21083;50.898;4.902;2022-07-24T02:41:53;45.83;;;30.17;;
20653;SDS011;21083;50.898;4.902;2022-07-24T02:44:20;45.75;;;30.17;;
20653;SDS011;21083;50.898;4.902;2022-07-24T02:46:48;44.25;;;28.88;;
20653;SDS011;21083;50.898;4.902;2022-07-24T02:49:15;45.80;;;28.98;;
20653;SDS011;21083;50.898;4.902;2022-07-24T02:51:42;44.63;;;27.00;;
20653;SDS011;21083;50.898;4.902;2022-07-24T02:54:09;46.42;;;28.75;;
20653;SDS011;21083;50.898;4.902;2022-07-24T02:56:35;46.20;;;27.80;;
20653;SDS011;21083;50.898;4.902;2022-07-24T02:59:02;40.75;;;26.15;;
20653;SDS011;21083;50.898;4.902;2022-07-24T03:01:29;37.70;;;27.63;;
20653;SDS011;21083;50.898;4.902;2022-07-24T03:03:57;37.92;;;26.70;;
20653;SDS011;21083;50.898;4.902;2022-07-24T03:06:24;39.40;;;25.55;;
20653;SDS011;21083;50.898;4.902;2022-07-24T03:08:51;38.65;;;25.63;;
20653;SDS011;21083;50.898;4.902;2022-07-24T03:11:18;39.80;;;25.17;;
20653;SDS011;21083;50.898;4.902;2022-07-24T03:13:45;45.67;;;26.52;;
20653;SDS011;21083;50.898;4.902;2022-07-24T03:16:12;40.80;;;27.45;;
20653;SDS011;21083;50.898;4.902;2022-07-24T03:18:41;41.20;;;25.60;;
20653;SDS011;21083;50.898;4.902;2022-07-24T03:21:12;42.80;;;26.33;;
20653;SDS011;21083;50.898;4.902;2022-07-24T03:23:39;39.17;;;25.73;;
20653;SDS011;21083;50.898;4.902;2022-07-24T03:26:06;39.47;;;25.80;;
20653;SDS011;21083;50.898;4.902;2022-07-24T03:28:34;36.17;;;25.55;;
20653;SDS011;21083;50.898;4.902;2022-07-24T03:31:01;39.00;;;24.75;;
20653;SDS011;21083;50.898;4.902;2022-07-24T03:33:28;40.15;;;26.67;;
20653;SDS011;21083;50.898;4.902;2022-07-24T03:35:55;41.60;;;28.08;;
20653;SDS011;21083;50.898;4.902;2022-07-24T03:38:23;41.50;;;27.02;;
20653;SDS011;21083;50.898;4.902;2022-07-24T03:40:50;45.75;;;27.95;;
20653;SDS011;21083;50.898;4.902;2022-07-24T03:43:17;54.55;;;28.40;;
20653;SDS011;21083;50.898;4.902;2022-07-24T03:45:44;36.92;;;26.13;;
20653;SDS011;21083;50.898;4.902;2022-07-24T03:48:11;41.95;;;27.17;;
20653;SDS011;21083;50.898;4.902;2022-07-24T03:50:38;44.47;;;28.00;;
20653;SDS011;21083;50.898;4.902;2022-07-24T03:53:05;40.00;;;26.58;;
20653;SDS011;21083;50.898;4.902;2022-07-24T03:55:33;39.70;;;26.88;;
20653;SDS011;21083;50.898;4.902;2022-07-24T03:58:00;40.08;;;27.52;;
20653;SDS011;21083;50.898;4.902;2022-07-24T04:00:27;40.53;;;27.63;;
20653;SDS011;21083;50.898;4.902;2022-07-24T04:02:54;38.47;;;25.13;;
20653;SDS011;21083;50.898;4.902;2022-07-24T04:05:21;36.75;;;25.20;;
20653;SDS011;21083;50.898;4.902;2022-07-24T04:07:48;38.63;;;25.80;;
20653;SDS011;21083;50.898;4.902;2022-07-24T04:10:15;38.85;;;25.98;;
20653;SDS011;21083;50.898;4.902;2022-07-24T04:12:43;42.30;;;25.55;;
20653;SDS011;21083;50.898;4.902;2022-07-24T04:15:10;42.47;;;25.50;;
20653;SDS011;21083;50.898;4.902;2022-07-24T04:17:38;45.67;;;26.60;;
20653;SDS011;21083;50.898;4.902;2022-07-24T04:20:06;41.65;;;27.00;;
20653;SDS011;21083;50.898;4.902;2022-07-24T04:22:34;41.30;;;26.15;;
20653;SDS011;21083;50.898;4.902;2022-07-24T04:25:01;41.63;;;28.05;;
20653;SDS011;21083;50.898;4.902;2022-07-24T04:27:28;41.92;;;27.65;;
20653;SDS011;21083;50.898;4.902;2022-07-24T04:29:57;40.85;;;27.77;;
20653;SDS011;21083;50.898;4.902;2022-07-24T04:32:24;41.63;;;29.00;;
20653;SDS011;21083;50.898;4.902;2022-07-24T04:34:51;42.70;;;27.60;;
20653;SDS011;21083;50.898;4.902;2022-07-24T04:37:18;43.38;;;27.00;;
20653;SDS011;21083;50.898;4.902;2022-07-24T04:39:44;44.33;;;27.55;;
20653;SDS011;21083;50.898;4.902;2022-07-24T04:42:11;44.08;;;28.95;;
20653;SDS011;21083;50.898;4.902;2022-07-24T04:44:39;42.53;;;28.42;;
20653;SDS011;21083;50.898;4.902;2022-07-24T04:47:07;42.03;;;26.77;;
20653;SDS011;21083;50.898;4.902;2022-07-24T04:49:34;43.30;;;27.98;;
20653;SDS011;21083;50.898;4.902;2022-07-24T04:52:01;43.28;;;28.65;;
20653;SDS011;21083;50.898;4.902;2022-07-24T04:54:28;44.60;;;27.02;;
20653;SDS011;21083;50.898;4.902;2022-07-24T04:56:55;39.63;;;27.33;;
20653;SDS011;21083;50.898;4.902;2022-07-24T04:59:22;44.55;;;27.77;;
20653;SDS011;21083;50.898;4.902;2022-07-24T05:01:49;42.90;;;26.58;;
20653;SDS011;21083;50.898;4.902;2022-07-24T05:04:17;46.63;;;28.05;;
20653;SDS011;21083;50.898;4.902;2022-07-24T05:06:44;37.97;;;25.85;;
20653;SDS011;21083;50.898;4.902;2022-07-24T05:09:12;42.92;;;26.48;;
20653;SDS011;21083;50.898;4.902;2022-07-24T05:11:39;42.97;;;27.50;;
20653;SDS011;21083;50.898;4.902;2022-07-24T05:14:06;39.42;;;26.95;;
20653;SDS011;21083;50.898;4.902;2022-07-24T05:16:33;43.72;;;27.75;;
20653;SDS011;21083;50.898;4.902;2022-07-24T05:19:00;39.53;;;26.67;;
20653;SDS011;21083;50.898;4.902;2022-07-24T05:21:28;38.78;;;25.27;;
20653;SDS011;21083;50.898;4.902;2022-07-24T05:23:57;42.47;;;27.23;;
20653;SDS011;21083;50.898;4.902;2022-07-24T05:26:26;43.38;;;25.38;;
20653;SDS011;21083;50.898;4.902;2022-07-24T05:28:53;45.17;;;27.45;;
20653;SDS011;21083;50.898;4.902;2022-07-24T05:31:20;41.47;;;25.98;;
20653;SDS011;21083;50.898;4.902;2022-07-24T05:33:47;46.38;;;26.95;;
20653;SDS011;21083;50.898;4.902;2022-07-24T05:36:14;40.22;;;26.50;;
20653;SDS011;21083;50.898;4.902;2022-07-24T05:38:42;43.80;;;27.70;;
20653;SDS011;21083;50.898;4.902;2022-07-24T05:41:10;40.17;;;26.20;;
20653;SDS011;21083;50.898;4.902;2022-07-24T05:43:37;43.60;;;26.10;;
20653;SDS011;21083;50.898;4.902;2022-07-24T05:46:05;39.80;;;25.73;;
20653;SDS011;21083;50.898;4.902;2022-07-24T05:48:32;41.90;;;24.38;;
20653;SDS011;21083;50.898;4.902;2022-07-24T05:50:59;41.40;;;25.45;;
20653;SDS011;21083;50.898;4.902;2022-07-24T05:53:26;39.58;;;24.90;;
20653;SDS011;21083;50.898;4.902;2022-07-24T05:55:54;41.03;;;24.10;;
20653;SDS011;21083;50.898;4.902;2022-07-24T05:58:21;40.47;;;25.17;;
20653;SDS011;21083;50.898;4.902;2022-07-24T06:00:48;36.25;;;23.45;;
20653;SDS011;21083;50.898;4.902;2022-07-24T06:03:15;34.83;;;23.65;;
20653;SDS011;21083;50.898;4.902;2022-07-24T06:05:42;34.35;;;24.30;;
20653;SDS011;21083;50.898;4.902;2022-07-24T06:08:08;41.00;;;23.20;;
20653;SDS011;21083;50.898;4.902;2022-07-24T06:10:35;34.45;;;21.23;;
20653;SDS011;21083;50.898;4.902;2022-07-24T06:13:04;35.92;;;21.45;;
20653;SDS011;21083;50.898;4.902;2022-07-24T06:15:31;35.70;;;20.52;;
20653;SDS011;21083;50.898;4.902;2022-07-24T06:17:58;30.80;;;20.30;;
20653;SDS011;21083;50.898;4.902;2022-07-24T06:20:25;30.25;;;20.00;;
20653;SDS011;21083;50.898;4.902;2022-07-24T06:22:52;31.45;;;19.85;;
20653;SDS011;21083;50.898;4.902;2022-07-24T06:25:19;34.33;;;21.17;;
20653;SDS011;21083;50.898;4.902;2022-07-24T06:27:46;32.72;;;19.50;;
20653;SDS011;21083;50.898;4.902;2022-07-24T06:30:16;30.65;;;18.52;;
20653;SDS011;21083;50.898;4.902;2022-07-24T06:32:44;29.83;;;16.95;;
20653;SDS011;21083;50.898;4.902;2022-07-24T06:35:11;28.65;;;17.05;;
20653;SDS011;21083;50.898;4.902;2022-07-24T06:37:38;25.98;;;15.43;;
20653;SDS011;21083;50.898;4.902;2022-07-24T06:40:05;24.90;;;16.23;;
20653;SDS011;21083;50.898;4.902;2022-07-24T06:42:33;24.73;;;13.32;;
20653;SDS011;21083;50.898;4.902;2022-07-24T06:45:00;25.30;;;13.38;;
20653;SDS011;21083;50.898;4.902;2022-07-24T06:47:28;22.40;;;12.25;;
20653;SDS011;21083;50.898;4.902;2022-07-24T06:49:55;25.08;;;13.05;;
20653;SDS011;21083;50.898;4.902;2022-07-24T06:52:23;22.48;;;12.60;;
20653;SDS011;21083;50.898;4.902;2022-07-24T06:54:50;21.55;;;12.18;;
20653;SDS011;21083;50.898;4.902;2022-07-24T06:57:17;23.20;;;12.90;;
20653;SDS011;21083;50.898;4.902;2022-07-24T06:59:44;21.77;;;12.57;;
20653;SDS011;21083;50.898;4.902;2022-07-24T07:02:11;20.50;;;12.45;;
20653;SDS011;21083;50.898;4.902;2022-07-24T07:04:39;21.13;;;12.48;;
20653;SDS011;21083;50.898;4.902;2022-07-24T07:07:06;20.13;;;12.50;;
20653;SDS011;21083;50.898;4.902;2022-07-24T07:09:33;21.02;;;12.95;;
20653;SDS011;21083;50.898;4.902;2022-07-24T07:12:01;26.75;;;12.57;;
20653;SDS011;21083;50.898;4.902;2022-07-24T07:14:28;21.88;;;12.25;;
20653;SDS011;21083;50.898;4.902;2022-07-24T07:16:55;19.83;;;12.00;;
20653;SDS011;21083;50.898;4.902;2022-07-24T07:19:22;20.25;;;11.55;;
20653;SDS011;21083;50.898;4.902;2022-07-24T07:21:50;22.45;;;12.45;;
20653;SDS011;21083;50.898;4.902;2022-07-24T07:24:17;24.55;;;12.60;;
20653;SDS011;21083;50.898;4.902;2022-07-24T07:26:44;24.67;;;12.63;;
20653;SDS011;21083;50.898;4.902;2022-07-24T07:29:11;25.70;;;12.68;;
20653;SDS011;21083;50.898;4.902;2022-07-24T07:31:38;24.88;;;12.18;;
20653;SDS011;21083;50.898;4.902;2022-07-24T07:34:04;22.65;;;11.48;;
20653;SDS011;21083;50.898;4.902;2022-07-24T07:36:31;23.55;;;11.18;;
20653;SDS011;21083;50.898;4.902;2022-07-24T07:39:01;22.05;;;11.73;;
20653;SDS011;21083;50.898;4.902;2022-07-24T07:41:28;27.65;;;12.38;;
20653;SDS011;21083;50.898;4.902;2022-07-24T07:43:55;24.92;;;12.38;;
20653;SDS011;21083;50.898;4.902;2022-07-24T07:46:23;21.23;;;10.95;;
20653;SDS011;21083;50.898;4.902;2022-07-24T07:48:50;21.33;;;9.80;;
20653;SDS011;21083;50.898;4.902;2022-07-24T07:51:17;16.55;;;8.40;;
20653;SDS011;21083;50.898;4.902;2022-07-24T07:53:44;16.55;;;7.55;;
20653;SDS011;21083;50.898;4.902;2022-07-24T07:56:13;21.95;;;8.77;;
20653;SDS011;21083;50.898;4.902;2022-07-24T07:58:40;11.80;;;5.57;;
20653;SDS011;21083;50.898;4.902;2022-07-24T08:01:07;13.25;;;5.55;;
20653;SDS011;21083;50.898;4.902;2022-07-24T08:03:34;16.90;;;5.25;;
20653;SDS011;21083;50.898;4.902;2022-07-24T08:06:01;9.98;;;4.20;;
20653;SDS011;21083;50.898;4.902;2022-07-24T08:08:29;10.45;;;4.53;;
20653;SDS011;21083;50.898;4.902;2022-07-24T08:10:56;11.45;;;4.65;;
20653;SDS011;21083;50.898;4.902;2022-07-24T08:13:24;9.27;;;3.42;;
20653;SDS011;21083;50.898;4.902;2022-07-24T08:15:52;10.50;;;4.28;;
20653;SDS011;21083;50.898;4.902;2022-07-24T08:18:19;8.82;;;2.83;;
20653;SDS011;21083;50.898;4.902;2022-07-24T08:20:46;6.97;;;2.90;;
20653;SDS011;21083;50.898;4.902;2022-07-24T08:23:13;7.35;;;2.70;;
20653;SDS011;21083;50.898;4.902;2022-07-24T08:25:40;8.80;;;3.22;;
20653;SDS011;21083;50.898;4.902;2022-07-24T08:28:07;10.55;;;3.17;;
20653;SDS011;21083;50.898;4.902;2022-07-24T08:30:35;7.68;;;3.15;;
20653;SDS011;21083;50.898;4.902;2022-07-24T08:33:02;10.52;;;3.55;;
20653;SDS011;21083;50.898;4.902;2022-07-24T08:35:29;9.63;;;3.25;;
20653;SDS011;21083;50.898;4.902;2022-07-24T08:37:56;9.38;;;3.10;;
20653;SDS011;21083;50.898;4.902;2022-07-24T08:40:23;8.02;;;3.35;;
20653;SDS011;21083;50.898;4.902;2022-07-24T08:42:50;11.93;;;3.65;;
20653;SDS011;21083;50.898;4.902;2022-07-24T08:45:17;10.38;;;3.83;;
20653;SDS011;21083;50.898;4.902;2022-07-24T08:47:45;8.85;;;3.67;;
20653;SDS011;21083;50.898;4.902;2022-07-24T08:50:16;10.18;;;3.78;;
20653;SDS011;21083;50.898;4.902;2022-07-24T08:52:43;8.63;;;3.50;;
20653;SDS011;21083;50.898;4.902;2022-07-24T08:55:10;7.57;;;3.65;;
20653;SDS011;21083;50.898;4.902;2022-07-24T08:57:37;8.57;;;3.60;;
20653;SDS011;21083;50.898;4.902;2022-07-24T09:00:05;6.95;;;3.25;;
20653;SDS011;21083;50.898;4.902;2022-07-24T09:02:32;6.60;;;3.20;;
20653;SDS011;21083;50.898;4.902;2022-07-24T09:05:01;7.03;;;3.00;;
20653;SDS011;21083;50.898;4.902;2022-07-24T09:07:28;9.60;;;3.55;;
20653;SDS011;21083;50.898;4.902;2022-07-24T09:10:00;11.57;;;3.50;;
20653;SDS011;21083;50.898;4.902;2022-07-24T09:12:32;7.72;;;3.13;;
20653;SDS011;21083;50.898;4.902;2022-07-24T09:15:00;4.72;;;2.60;;
20653;SDS011;21083;50.898;4.902;2022-07-24T09:17:36;5.82;;;2.80;;
20653;SDS011;21083;50.898;4.902;2022-07-24T09:20:15;10.18;;;3.20;;
20653;SDS011;21083;50.898;4.902;2022-07-24T09:22:42;8.23;;;2.95;;
20653;SDS011;21083;50.898;4.902;2022-07-24T09:25:11;6.50;;;3.00;;
20653;SDS011;21083;50.898;4.902;2022-07-24T09:27:40;5.25;;;2.35;;
20653;SDS011;21083;50.898;4.902;2022-07-24T09:30:22;7.50;;;3.05;;
20653;SDS011;21083;50.898;4.902;2022-07-24T09:32:53;7.65;;;2.88;;
20653;SDS011;21083;50.898;4.902;2022-07-24T09:35:24;10.27;;;2.92;;
20653;SDS011;21083;50.898;4.902;2022-07-24T09:38:02;6.38;;;2.55;;
20653;SDS011;21083;50.898;4.902;2022-07-24T09:40:31;5.03;;;2.50;;
20653;SDS011;21083;50.898;4.902;2022-07-24T09:43:18;5.53;;;2.40;;
20653;SDS011;21083;50.898;4.902;2022-07-24T09:45:52;9.80;;;2.67;;
20653;SDS011;21083;50.898;4.902;2022-07-24T09:48:21;4.05;;;2.30;;
20653;SDS011;21083;50.898;4.902;2022-07-24T09:50:50;6.80;;;2.50;;
20653;SDS011;21083;50.898;4.902;2022-07-24T09:53:18;7.50;;;2.10;;
20653;SDS011;21083;50.898;4.902;2022-07-24T09:55:55;5.55;;;2.67;;
20653;SDS011;21083;50.898;4.902;2022-07-24T09:58:26;6.38;;;2.10;;
20653;SDS011;21083;50.898;4.902;2022-07-24T10:00:54;4.60;;;1.90;;
20653;SDS011;21083;50.898;4.902;2022-07-24T10:03:23;8.43;;;2.13;;
20653;SDS011;21083;50.898;4.902;2022-07-24T10:05:54;5.35;;;2.40;;
20653;SDS011;21083;50.898;4.902;2022-07-24T10:08:23;4.25;;;2.13;;
20653;SDS011;21083;50.898;4.902;2022-07-24T10:10:50;6.68;;;2.60;;
20653;SDS011;21083;50.898;4.902;2022-07-24T10:13:18;5.53;;;2.35;;
20653;SDS011;21083;50.898;4.902;2022-07-24T10:15:50;3.75;;;1.80;;
20653;SDS011;21083;50.898;4.902;2022-07-24T10:18:19;5.00;;;2.00;;
20653;SDS011;21083;50.898;4.902;2022-07-24T10:20:47;4.30;;;2.13;;
20653;SDS011;21083;50.898;4.902;2022-07-24T10:23:21;4.85;;;1.92;;
20653;SDS011;21083;50.898;4.902;2022-07-24T10:25:54;4.35;;;2.17;;
20653;SDS011;21083;50.898;4.902;2022-07-24T10:28:35;3.60;;;1.83;;
20653;SDS011;21083;50.898;4.902;2022-07-24T10:31:04;3.78;;;1.70;;
20653;SDS011;21083;50.898;4.902;2022-07-24T10:33:33;5.15;;;2.00;;
20653;SDS011;21083;50.898;4.902;2022-07-24T10:36:02;5.00;;;2.20;;
20653;SDS011;21083;50.898;4.902;2022-07-24T10:38:36;5.90;;;1.75;;
20653;SDS011;21083;50.898;4.902;2022-07-24T10:41:09;4.88;;;2.20;;
20653;SDS011;21083;50.898;4.902;2022-07-24T10:43:41;5.25;;;1.90;;
20653;SDS011;21083;50.898;4.902;2022-07-24T10:49:33;4.80;;;2.13;;
20653;SDS011;21083;50.898;4.902;2022-07-24T10:52:02;6.90;;;2.10;;
20653;SDS011;21083;50.898;4.902;2022-07-24T10:54:30;7.72;;;2.00;;
20653;SDS011;21083;50.898;4.902;2022-07-24T10:56:57;4.60;;;1.70;;
20653;SDS011;21083;50.898;4.902;2022-07-24T10:59:31;6.10;;;1.80;;
20653;SDS011;21083;50.898;4.902;2022-07-24T11:11:15;3.53;;;1.73;;
20653;SDS011;21083;50.898;4.902;2022-07-24T11:16:20;4.55;;;1.77;;
20653;SDS011;21083;50.898;4.902;2022-07-24T11:22:04;6.05;;;1.70;;
20653;SDS011;21083;50.898;4.902;2022-07-24T11:24:33;3.20;;;1.67;;
20653;SDS011;21083;50.898;4.902;2022-07-24T11:27:05;9.10;;;1.80;;
20653;SDS011;21083;50.898;4.902;2022-07-24T11:29:34;6.75;;;1.52;;
20653;SDS011;21083;50.898;4.902;2022-07-24T11:32:03;2.97;;;1.65;;
20653;SDS011;21083;50.898;4.902;2022-07-24T11:34:31;3.92;;;1.40;;
20653;SDS011;21083;50.898;4.902;2022-07-24T11:36:59;3.85;;;1.40;;
20653;SDS011;21083;50.898;4.902;2022-07-24T11:39:27;4.03;;;1.60;;
20653;SDS011;21083;50.898;4.902;2022-07-24T11:41:56;4.43;;;1.63;;
20653;SDS011;21083;50.898;4.902;2022-07-24T11:44:26;6.10;;;1.50;;
20653;SDS011;21083;50.898;4.902;2022-07-24T11:46:55;4.80;;;1.77;;
20653;SDS011;21083;50.898;4.902;2022-07-24T11:49:23;4.13;;;1.55;;
20653;SDS011;21083;50.898;4.902;2022-07-24T11:51:51;3.50;;;1.50;;
20653;SDS011;21083;50.898;4.902;2022-07-24T11:54:20;7.22;;;2.00;;
20653;SDS011;21083;50.898;4.902;2022-07-24T11:56:48;3.55;;;1.20;;
20653;SDS011;21083;50.898;4.902;2022-07-24T11:59:22;5.03;;;1.33;;
20653;SDS011;21083;50.898;4.902;2022-07-24T12:01:51;5.00;;;1.73;;
20653;SDS011;21083;50.898;4.902;2022-07-24T12:04:22;6.13;;;2.25;;
20653;SDS011;21083;50.898;4.902;2022-07-24T12:06:49;3.45;;;1.70;;
20653;SDS011;21083;50.898;4.902;2022-07-24T12:09:16;3.30;;;1.60;;
20653;SDS011;21083;50.898;4.902;2022-07-24T12:11:43;3.33;;;1.52;;
20653;SDS011;21083;50.898;4.902;2022-07-24T12:14:13;3.90;;;1.65;;
20653;SDS011;21083;50.898;4.902;2022-07-24T12:16:41;3.47;;;1.40;;
20653;SDS011;21083;50.898;4.902;2022-07-24T12:19:16;5.65;;;1.42;;
20653;SDS011;21083;50.898;4.902;2022-07-24T12:21:44;2.63;;;1.45;;
20653;SDS011;21083;50.898;4.902;2022-07-24T12:24:13;2.15;;;1.30;;
20653;SDS011;21083;50.898;4.902;2022-07-24T12:26:53;4.28;;;1.30;;
20653;SDS011;21083;50.898;4.902;2022-07-24T12:29:21;4.80;;;1.60;;
20653;SDS011;21083;50.898;4.902;2022-07-24T12:31:50;5.35;;;1.52;;
20653;SDS011;21083;50.898;4.902;2022-07-24T12:34:20;4.32;;;1.42;;
20653;SDS011;21083;50.898;4.902;2022-07-24T12:36:47;3.30;;;1.55;;
20653;SDS011;21083;50.898;4.902;2022-07-24T12:39:14;4.60;;;1.52;;
20653;SDS011;21083;50.898;4.902;2022-07-24T12:41:43;4.28;;;1.75;;
20653;SDS011;21083;50.898;4.902;2022-07-24T12:44:12;5.05;;;1.80;;
20653;SDS011;21083;50.898;4.902;2022-07-24T12:46:40;4.85;;;2.00;;
20653;SDS011;21083;50.898;4.902;2022-07-24T12:49:08;5.20;;;2.10;;
20653;SDS011;21083;50.898;4.902;2022-07-24T12:51:47;4.82;;;1.88;;
20653;SDS011;21083;50.898;4.902;2022-07-24T12:54:16;4.22;;;1.85;;
20653;SDS011;21083;50.898;4.902;2022-07-24T12:56:44;7.10;;;2.22;;
20653;SDS011;21083;50.898;4.902;2022-07-24T12:59:20;5.28;;;2.40;;
20653;SDS011;21083;50.898;4.902;2022-07-24T13:01:50;6.35;;;2.33;;
20653;SDS011;21083;50.898;4.902;2022-07-24T13:04:18;4.45;;;2.22;;
20653;SDS011;21083;50.898;4.902;2022-07-24T13:06:48;8.13;;;2.50;;
20653;SDS011;21083;50.898;4.902;2022-07-24T13:09:16;18.98;;;3.35;;
20653;SDS011;21083;50.898;4.902;2022-07-24T13:11:45;5.32;;;2.40;;
20653;SDS011;21083;50.898;4.902;2022-07-24T13:14:13;7.43;;;2.40;;
20653;SDS011;21083;50.898;4.902;2022-07-24T13:16:42;8.00;;;2.75;;
20653;SDS011;21083;50.898;4.902;2022-07-24T13:19:10;6.38;;;2.40;;
20653;SDS011;21083;50.898;4.902;2022-07-24T13:21:38;6.30;;;2.40;;
20653;SDS011;21083;50.898;4.902;2022-07-24T13:24:08;6.05;;;3.03;;
20653;SDS011;21083;50.898;4.902;2022-07-24T13:26:37;9.35;;;2.80;;
20653;SDS011;21083;50.898;4.902;2022-07-24T13:29:06;9.35;;;2.58;;
20653;SDS011;21083;50.898;4.902;2022-07-24T13:31:33;4.15;;;2.25;;
20653;SDS011;21083;50.898;4.902;2022-07-24T13:34:00;4.18;;;2.40;;
20653;SDS011;21083;50.898;4.902;2022-07-24T13:36:27;6.75;;;3.13;;
20653;SDS011;21083;50.898;4.902;2022-07-24T13:38:54;5.97;;;2.60;;
20653;SDS011;21083;50.898;4.902;2022-07-24T13:41:23;7.97;;;2.60;;
20653;SDS011;21083;50.898;4.902;2022-07-24T13:43:50;7.47;;;2.25;;
20653;SDS011;21083;50.898;4.902;2022-07-24T13:46:17;8.73;;;2.55;;
20653;SDS011;21083;50.898;4.902;2022-07-24T13:48:45;5.53;;;2.72;;
20653;SDS011;21083;50.898;4.902;2022-07-24T13:51:12;4.70;;;2.42;;
20653;SDS011;21083;50.898;4.902;2022-07-24T13:53:39;7.90;;;2.58;;
20653;SDS011;21083;50.898;4.902;2022-07-24T13:56:06;5.47;;;2.50;;
20653;SDS011;21083;50.898;4.902;2022-07-24T13:58:35;5.32;;;2.55;;
20653;SDS011;21083;50.898;4.902;2022-07-24T14:01:03;6.93;;;2.40;;
20653;SDS011;21083;50.898;4.902;2022-07-24T14:03:30;4.10;;;2.50;;
20653;SDS011;21083;50.898;4.902;2022-07-24T14:05:57;5.63;;;2.70;;
20653;SDS011;21083;50.898;4.902;2022-07-24T14:08:25;4.78;;;2.28;;
20653;SDS011;21083;50.898;4.902;2022-07-24T14:10:53;5.20;;;2.70;;
20653;SDS011;21083;50.898;4.902;2022-07-24T14:13:20;5.78;;;2.40;;
20653;SDS011;21083;50.898;4.902;2022-07-24T14:15:48;4.47;;;2.40;;
20653;SDS011;21083;50.898;4.902;2022-07-24T14:18:15;6.55;;;2.55;;
20653;SDS011;21083;50.898;4.902;2022-07-24T14:20:43;8.60;;;2.78;;
20653;SDS011;21083;50.898;4.902;2022-07-24T14:23:10;8.43;;;2.92;;
20653;SDS011;21083;50.898;4.902;2022-07-24T14:25:37;7.30;;;2.90;;
20653;SDS011;21083;50.898;4.902;2022-07-24T14:28:04;8.40;;;2.75;;
20653;SDS011;21083;50.898;4.902;2022-07-24T14:30:31;6.45;;;2.30;;
20653;SDS011;21083;50.898;4.902;2022-07-24T14:32:59;5.18;;;2.60;;
20653;SDS011;21083;50.898;4.902;2022-07-24T14:35:26;9.27;;;2.50;;
20653;SDS011;21083;50.898;4.902;2022-07-24T14:37:56;9.85;;;3.05;;
20653;SDS011;21083;50.898;4.902;2022-07-24T14:40:23;7.00;;;2.65;;
20653;SDS011;21083;50.898;4.902;2022-07-24T14:42:51;7.20;;;3.10;;
20653;SDS011;21083;50.898;4.902;2022-07-24T14:45:18;7.32;;;3.00;;
20653;SDS011;21083;50.898;4.902;2022-07-24T14:47:45;6.13;;;2.72;;
20653;SDS011;21083;50.898;4.902;2022-07-24T14:50:13;8.60;;;3.65;;
20653;SDS011;21083;50.898;4.902;2022-07-24T14:52:40;7.28;;;3.40;;
20653;SDS011;21083;50.898;4.902;2022-07-24T14:55:07;8.13;;;2.83;;
20653;SDS011;21083;50.898;4.902;2022-07-24T14:57:35;9.68;;;3.13;;
20653;SDS011;21083;50.898;4.902;2022-07-24T15:00:02;8.48;;;2.95;;